Terminal Aerodrome Forecast
Issued by NWS Sterling, VA

Current Version | Previous Version | Graphics & Text | Print | Product List | Glossary On
Versions: 1 2 3 4 5 6 7 8 9 10 11 12 13 14 15 16 17 18 19 20 21 22 23 24 25
000
FTUS41 KLWX 220843 AAA
TAFIAD
TAF AMD
KIAD 220843Z 2209/2312 18004KT P6SM SCT250
     FM221600 21007KT P6SM SCT050
     FM221900 21011G17KT P6SM BKN050
     FM230300 23007KT P6SM OVC050
     FM231100 30004KT P6SM BKN050=

USA.gov is the U.S. government's official web portal to all federal, state and local government web resources and services.